Time;durP1;ratioP1;P1;durP2;ratioP2;P2;SDS_P1;SDS_P2;PMS_P1;PMS_P2;Temp;Humidity;BMP_temperature;BMP_pressure;BME280_temperature;BME280_humidity;BME280_pressure;Samples;Min_cycle;Max_cycle;Signal;HPM_P1;HPM_P2
2022/06/02 00:01:35;;;;;;;5.20;2.17;;;;;;;26.72;88.88;100458.89;1736312;81;21513;-55
2022/06/02 00:04:38;;;;;;;5.13;2.20;;;;;;;26.77;87.58;100458.82;1745702;80;20942;-55
2022/06/02 00:07:19;;;;;;;7.17;2.23;;;;;;;26.31;92.36;100464.66;1757551;80;21023;-55
2022/06/02 00:10:01;;;;;;;4.45;2.22;;;;;;;26.24;92.96;100463.39;1755969;80;21360;-64
2022/06/02 00:12:47;;;;;;;6.70;2.10;;;;;;;26.24;93.55;100470.07;1765102;80;21195;-57
2022/06/02 00:15:40;;;;;;;5.37;2.10;;;;;;;26.16;93.71;100472.27;1761353;80;21425;-65
2022/06/02 00:18:23;;;;;;;7.93;2.47;;;;;;;26.18;92.87;100470.13;1737583;81;21055;-55
2022/06/02 00:20:54;;;;;;;5.10;2.43;;;;;;;26.14;93.48;100469.64;1763253;80;21126;-58
2022/06/02 00:23:53;;;;;;;7.37;2.07;;;;;;;26.11;92.08;100467.53;1762327;80;21462;-56
2022/06/02 00:26:56;;;;;;;6.53;1.53;;;;;;;26.06;92.00;100467.56;1767714;80;21644;-55
2022/06/02 00:29:46;;;;;;;5.77;1.70;;;;;;;26.06;87.04;100467.02;1759188;80;20878;-55
2022/06/02 00:32:28;;;;;;;3.98;1.70;;;;;;;26.05;87.64;100469.98;1763012;80;21367;-56
2022/06/02 00:35:05;;;;;;;5.57;1.67;;;;;;;26.09;86.18;100456.31;1736079;80;21556;-56
2022/06/02 00:38:18;;;;;;;4.13;1.33;;;;;;;26.15;85.16;100461.88;1761152;80;20985;-57
2022/06/02 00:40:45;;;;;;;5.23;1.70;;;;;;;26.08;82.88;100450.72;1759755;80;21156;-59
2022/06/02 00:43:32;;;;;;;5.67;1.63;;;;;;;26.11;82.51;100450.16;1737967;81;21982;-56
2022/06/02 00:46:25;;;;;;;5.97;1.70;;;;;;;26.09;82.68;100446.97;1756061;80;20996;-66
2022/06/02 00:49:07;;;;;;;5.07;1.83;;;;;;;26.04;82.27;100441.68;1776148;80;21487;-55
2022/06/02 00:52:02;;;;;;;3.33;1.53;;;;;;;26.09;81.33;100436.28;1771656;80;21644;-58
2022/06/02 00:58:28;;;;;;;4.53;1.63;;;;;;;26.02;78.73;100421.11;1766755;80;21050;-56
2022/06/02 01:01:27;;;;;;;4.80;1.83;;;;;;;25.93;79.59;100425.73;1765917;80;21615;-55
2022/06/02 01:03:55;;;;;;;5.93;1.60;;;;;;;25.87;78.73;100416.70;1760311;80;20975;-56
2022/06/02 01:07:14;;;;;;;5.37;1.80;;;;;;;25.88;77.93;100415.66;1740817;81;21116;-56
2022/06/02 01:09:46;;;;;;;4.73;1.50;;;;;;;25.91;77.74;100415.89;1743294;81;21130;-56
2022/06/02 01:12:47;;;;;;;5.77;1.30;;;;;;;25.89;78.06;100418.03;1749419;81;20917;-56
2022/06/02 01:15:47;;;;;;;4.90;1.40;;;;;;;25.91;76.92;100419.07;1741710;81;21482;-60
2022/06/02 01:18:43;;;;;;;5.05;1.50;;;;;;;25.86;75.70;100424.47;1736329;81;21106;-56
2022/06/02 01:21:51;;;;;;;3.33;1.70;;;;;;;25.94;74.45;100425.98;1742062;82;20937;-65
2022/06/02 01:24:56;;;;;;;5.67;1.80;;;;;;;25.93;74.99;100440.42;1741467;82;21166;-56
2022/06/02 01:28:22;;;;;;;6.57;1.47;;;;;;;25.82;74.90;100438.92;1689197;82;21533;-56
2022/06/02 01:31:17;;;;;;;7.17;1.70;;;;;;;25.84;74.08;100435.98;1688580;84;21558;-57
2022/06/02 01:34:24;;;;;;;5.57;2.70;;;;;;;25.87;74.56;100444.75;1745609;82;20945;-57
2022/06/02 01:37:03;;;;;;;7.50;2.50;;;;;;;25.77;74.31;100444.28;1748123;82;21115;-56
2022/06/02 01:40:07;;;;;;;6.17;2.53;;;;;;;25.66;75.88;100445.44;1729970;82;22274;-65
2022/06/02 01:42:56;;;;;;;3.90;2.10;;;;;;;25.70;76.59;100447.81;1725794;82;20973;-57
2022/06/02 01:45:46;;;;;;;5.30;1.83;;;;;;;25.74;76.90;100455.52;1728008;82;21044;-64
2022/06/02 01:48:29;;;;;;;7.33;1.85;;;;;;;25.72;75.75;100458.98;1735310;82;21126;-66
2022/06/02 01:51:19;;;;;;;6.03;1.50;;;;;;;25.80;76.07;100450.44;1725956;82;21009;-56
2022/06/02 01:54:30;;;;;;;5.12;1.92;;;;;;;25.73;77.76;100460.06;1727358;82;21158;-64
2022/06/02 01:57:23;;;;;;;6.05;1.77;;;;;;;25.73;77.76;100460.06;1738105;82;28222;-56
2022/06/02 02:00:05;;;;;;;4.63;1.50;;;;;;;25.78;77.11;100461.92;1728236;82;21402;-57
